createdAt,value
2022-11-16T00:01:52.395Z,17.75
2022-11-16T00:04:38.374Z,19.90
2022-11-16T00:07:24.400Z,19.10
2022-11-16T00:10:11.305Z,17.95
2022-11-16T00:12:57.160Z,18.30
2022-11-16T00:15:42.535Z,18.70
2022-11-16T00:18:28.736Z,17.40
2022-11-16T00:21:14.635Z,20.13
2022-11-16T00:24:00.545Z,20.85
2022-11-16T00:26:47.395Z,21.13
2022-11-16T00:29:32.997Z,20.48
2022-11-16T00:32:18.532Z,22.75
2022-11-16T00:35:04.274Z,25.17
2022-11-16T00:37:52.053Z,23.88
2022-11-16T00:40:37.705Z,24.17
2022-11-16T00:43:24.756Z,24.80
2022-11-16T00:46:10.277Z,25.13
2022-11-16T00:48:56.360Z,25.30
2022-11-16T00:51:42.394Z,26.25
2022-11-16T00:54:28.713Z,25.70
2022-11-16T00:57:14.316Z,25.67
2022-11-16T01:00:00.461Z,25.00
2022-11-16T01:02:45.932Z,24.45
2022-11-16T01:05:31.957Z,24.65
2022-11-16T01:08:17.672Z,25.33
2022-11-16T01:11:22.424Z,24.98
2022-11-16T01:14:09.504Z,24.92
2022-11-16T01:16:55.181Z,24.73
2022-11-16T01:19:41.308Z,24.52
2022-11-16T01:28:57.592Z,23.00
2022-11-16T01:31:43.816Z,24.23
2022-11-16T01:34:29.433Z,24.48
2022-11-16T01:37:22.262Z,23.48
2022-11-16T01:40:09.991Z,22.85
2022-11-16T01:42:57.207Z,21.83
2022-11-16T01:45:42.863Z,21.35
2022-11-16T01:48:31.513Z,21.10
2022-11-16T01:51:17.948Z,22.05
2022-11-16T01:54:07.654Z,22.17
2022-11-16T01:56:56.882Z,20.55
2022-11-16T01:59:55.365Z,20.95
2022-11-16T02:02:43.311Z,21.90
2022-11-16T02:06:01.235Z,19.73
2022-11-16T02:09:11.904Z,19.80
2022-11-16T02:12:25.239Z,19.08
2022-11-16T02:15:26.369Z,19.00
2022-11-16T02:19:08.532Z,19.88
2022-11-16T02:22:19.974Z,19.85
2022-11-16T02:25:15.013Z,19.75
2022-11-16T02:28:29.009Z,19.13
2022-11-16T02:31:18.745Z,20.42
2022-11-16T02:34:08.877Z,19.85
2022-11-16T02:36:58.267Z,19.60
2022-11-16T02:39:46.488Z,19.50
2022-11-16T02:42:43.955Z,19.63
2022-11-16T02:45:34.041Z,18.25
2022-11-16T02:48:23.982Z,18.17
2022-11-16T02:51:11.152Z,18.77
2022-11-16T02:54:18.116Z,19.15
2022-11-16T02:57:07.476Z,18.98
2022-11-16T02:59:57.235Z,18.55
2022-11-16T03:03:12.886Z,19.58
2022-11-16T03:06:04.779Z,19.58
2022-11-16T03:09:05.878Z,20.05
2022-11-16T03:12:00.865Z,21.40
2022-11-16T03:14:53.858Z,21.50
2022-11-16T03:17:46.124Z,22.70
2022-11-16T03:20:34.102Z,22.15
2022-11-16T03:23:20.384Z,22.17
2022-11-16T03:26:08.604Z,21.67
2022-11-16T03:29:08.508Z,21.85
2022-11-16T03:32:02.478Z,21.52
2022-11-16T03:35:11.496Z,20.50
2022-11-16T03:37:59.861Z,21.05
2022-11-16T03:40:47.708Z,20.95
2022-11-16T03:43:35.100Z,20.60
2022-11-16T03:46:22.332Z,20.17
2022-11-16T03:49:09.495Z,19.88
2022-11-16T03:51:58.097Z,19.05
2022-11-16T03:54:43.868Z,18.83
2022-11-16T03:57:30.332Z,18.90
2022-11-16T04:00:18.870Z,17.92
2022-11-16T04:03:04.470Z,18.70
2022-11-16T04:06:08.261Z,17.70
2022-11-16T04:09:09.917Z,16.70
2022-11-16T04:12:16.151Z,18.00
2022-11-16T04:15:20.345Z,17.45
2022-11-16T04:18:24.453Z,18.05
2022-11-16T04:21:56.496Z,17.85
2022-11-16T04:24:49.824Z,18.33
2022-11-16T04:27:55.433Z,19.48
2022-11-16T04:31:07.379Z,21.42
2022-11-16T04:34:12.897Z,23.20
2022-11-16T04:37:22.629Z,24.00
2022-11-16T04:40:09.327Z,23.35
2022-11-16T04:43:03.429Z,24.95
2022-11-16T04:46:11.827Z,25.00
2022-11-16T04:48:59.013Z,25.48
2022-11-16T04:51:44.548Z,24.63
2022-11-16T04:54:30.220Z,25.52
2022-11-16T04:57:16.364Z,24.40
2022-11-16T05:00:05.688Z,23.63
2022-11-16T05:02:55.654Z,23.92
2022-11-16T05:05:49.157Z,23.75
2022-11-16T05:08:35.375Z,23.38
2022-11-16T05:11:22.292Z,23.98
2022-11-16T05:14:10.503Z,23.60
2022-11-16T05:16:57.416Z,22.58
2022-11-16T05:20:01.665Z,23.63
2022-11-16T05:22:54.696Z,22.10
2022-11-16T05:25:41.959Z,21.60
2022-11-16T05:28:29.789Z,20.75
2022-11-16T05:31:16.276Z,20.98
2022-11-16T05:34:01.904Z,20.98
2022-11-16T05:36:47.406Z,20.58
2022-11-16T05:39:32.997Z,18.23
2022-11-16T05:42:18.847Z,17.63
2022-11-16T05:45:05.235Z,16.05
2022-11-16T05:47:51.572Z,17.00
2022-11-16T05:50:42.585Z,15.77
2022-11-16T05:53:36.423Z,15.70
2022-11-16T05:56:23.541Z,14.32
2022-11-16T05:59:16.769Z,14.05
2022-11-16T06:02:04.961Z,12.80
2022-11-16T06:04:52.055Z,13.15
2022-11-16T06:07:40.956Z,10.93
2022-11-16T06:10:26.741Z,10.73
2022-11-16T06:13:13.057Z,9.98
2022-11-16T06:16:01.223Z,10.30
2022-11-16T06:18:48.819Z,9.70
2022-11-16T06:21:35.572Z,10.38
2022-11-16T06:24:23.692Z,10.88
2022-11-16T06:27:10.381Z,10.85
2022-11-16T06:29:56.592Z,11.25
2022-11-16T06:32:42.725Z,11.13
2022-11-16T06:35:28.776Z,12.15
2022-11-16T06:38:18.617Z,12.48
2022-11-16T06:41:06.349Z,12.45
2022-11-16T06:43:58.098Z,12.27
2022-11-16T06:46:49.705Z,12.95
2022-11-16T06:49:35.147Z,12.82
2022-11-16T06:52:26.470Z,13.52
2022-11-16T06:55:12.135Z,14.32
2022-11-16T06:57:57.610Z,15.23
2022-11-16T07:00:43.705Z,14.15
2022-11-16T07:03:31.933Z,14.88
2022-11-16T07:06:20.712Z,14.25
2022-11-16T07:09:06.895Z,14.32
2022-11-16T07:11:52.632Z,15.40
2022-11-16T07:14:40.030Z,15.23
2022-11-16T07:17:28.053Z,14.68
2022-11-16T07:20:14.156Z,16.25
2022-11-16T07:23:01.293Z,15.43
2022-11-16T07:25:47.629Z,15.25
2022-11-16T07:28:46.712Z,13.77
2022-11-16T07:34:46.916Z,13.73
2022-11-16T07:37:35.048Z,13.50
2022-11-16T07:40:21.738Z,14.40
2022-11-16T07:43:08.478Z,12.93
2022-11-16T07:46:49.055Z,12.45
2022-11-16T07:49:27.072Z,12.35
2022-11-16T07:52:16.338Z,11.27
2022-11-16T07:55:20.468Z,11.60
2022-11-16T07:58:09.655Z,11.77
2022-11-16T08:00:55.699Z,11.63
2022-11-16T08:03:42.922Z,10.93
2022-11-16T08:06:30.586Z,10.70
2022-11-16T08:09:16.577Z,10.57
2022-11-16T08:12:02.181Z,10.68
2022-11-16T08:14:53.667Z,11.00
2022-11-16T08:17:39.535Z,11.02
2022-11-16T08:20:28.928Z,11.05
2022-11-16T08:23:14.978Z,11.65
2022-11-16T08:26:03.816Z,10.82
2022-11-16T08:28:51.425Z,11.23
2022-11-16T08:31:45.024Z,11.13
2022-11-16T08:34:34.124Z,12.70
2022-11-16T08:37:20.336Z,12.10
2022-11-16T08:40:07.531Z,12.38
2022-11-16T08:42:57.707Z,12.60
2022-11-16T08:45:48.136Z,12.82
2022-11-16T08:48:35.545Z,12.52
2022-11-16T08:51:21.471Z,12.70
2022-11-16T08:54:14.594Z,12.93
2022-11-16T08:57:01.866Z,13.27
2022-11-16T08:59:49.869Z,12.65
2022-11-16T09:02:35.931Z,12.32
2022-11-16T09:05:22.921Z,12.68
2022-11-16T09:08:10.660Z,12.27
2022-11-16T09:10:58.904Z,11.95
2022-11-16T09:13:45.904Z,11.77
2022-11-16T09:16:31.453Z,12.05
2022-11-16T09:19:17.797Z,12.43
2022-11-16T09:22:04.001Z,11.80
2022-11-16T09:24:49.965Z,11.98
2022-11-16T09:27:36.364Z,12.68
2022-11-16T09:30:22.150Z,10.82
2022-11-16T09:33:07.814Z,11.55
2022-11-16T09:35:53.512Z,11.02
2022-11-16T09:39:19.130Z,11.30
2022-11-16T09:42:19.784Z,10.63
2022-11-16T09:45:19.895Z,9.60
2022-11-16T09:48:09.216Z,10.43
2022-11-16T09:50:58.748Z,9.95
2022-11-16T09:54:16.779Z,10.40
2022-11-16T09:57:12.146Z,9.32
2022-11-16T10:00:04.448Z,8.85
2022-11-16T10:03:11.421Z,8.82
2022-11-16T10:06:03.344Z,8.57
2022-11-16T10:08:52.089Z,8.45
2022-11-16T10:11:46.990Z,8.65
2022-11-16T10:14:47.783Z,8.70
2022-11-16T10:17:51.718Z,9.20
2022-11-16T10:21:03.578Z,9.27
2022-11-16T10:24:13.708Z,8.75
2022-11-16T10:27:29.956Z,9.43
2022-11-16T10:30:19.995Z,9.63
2022-11-16T10:33:11.407Z,9.43
2022-11-16T10:35:58.268Z,9.43
2022-11-16T10:38:44.511Z,8.77
2022-11-16T10:41:40.413Z,9.40
2022-11-16T10:44:38.286Z,10.50
2022-11-16T10:47:51.922Z,10.35
2022-11-16T10:50:42.314Z,9.98
2022-11-16T10:53:33.151Z,10.23
2022-11-16T10:56:42.638Z,10.40
2022-11-16T10:59:44.988Z,10.50
2022-11-16T11:02:37.295Z,10.25
2022-11-16T11:05:23.110Z,10.85
2022-11-16T11:08:12.040Z,10.35
2022-11-16T11:11:24.924Z,10.60
2022-11-16T11:14:14.453Z,9.95
2022-11-16T11:17:12.268Z,11.30
2022-11-16T11:20:22.887Z,10.70
2022-11-16T11:23:18.278Z,11.98
2022-11-16T11:26:05.155Z,10.63
2022-11-16T11:29:41.273Z,11.25
2022-11-16T11:32:41.464Z,11.30
2022-11-16T11:35:32.884Z,10.98
2022-11-16T11:38:18.759Z,11.40
2022-11-16T11:41:07.161Z,11.35
2022-11-16T11:44:03.489Z,9.85
2022-11-16T11:47:42.312Z,10.95
2022-11-16T11:54:00.221Z,10.32
2022-11-16T11:56:46.212Z,11.05
2022-11-16T11:59:32.023Z,10.52
2022-11-16T12:02:52.561Z,10.98
2022-11-16T12:05:57.603Z,11.07
2022-11-16T12:08:46.644Z,12.30
2022-11-16T12:11:50.439Z,13.15
2022-11-16T12:14:51.805Z,13.02
2022-11-16T12:17:43.598Z,12.00
2022-11-16T12:20:36.664Z,12.80
2022-11-16T12:23:22.284Z,12.23
2022-11-16T12:26:46.769Z,12.80
2022-11-16T12:29:40.867Z,13.20
2022-11-16T12:32:57.380Z,13.70
2022-11-16T12:35:50.029Z,14.38
2022-11-16T12:38:58.588Z,14.10
2022-11-16T12:42:02.535Z,14.30
2022-11-16T12:47:39.459Z,11.15
2022-11-16T12:50:50.113Z,12.45
2022-11-16T12:53:54.703Z,11.40
2022-11-16T12:56:52.633Z,11.70
2022-11-16T12:59:56.784Z,10.32
2022-11-16T13:03:30.453Z,11.35
2022-11-16T13:06:27.082Z,11.52
2022-11-16T13:09:23.322Z,11.05
2022-11-16T13:12:17.184Z,10.52
2022-11-16T13:15:03.550Z,10.70
2022-11-16T13:18:00.077Z,9.88
2022-11-16T13:20:58.792Z,10.98
2022-11-16T13:24:05.752Z,10.73
2022-11-16T13:27:28.980Z,10.93
2022-11-16T13:30:19.875Z,11.48
2022-11-16T13:33:39.345Z,12.00
2022-11-16T13:36:45.676Z,10.90
2022-11-16T13:39:50.448Z,10.68
2022-11-16T13:42:43.791Z,10.00
2022-11-16T13:45:34.990Z,9.65
2022-11-16T13:48:35.348Z,9.38
2022-11-16T13:51:23.165Z,8.10
2022-11-16T13:57:33.625Z,7.35
2022-11-16T14:00:35.381Z,6.10
2022-11-16T14:03:20.778Z,6.80
2022-11-16T14:06:27.452Z,5.38
2022-11-16T14:09:45.405Z,5.78
2022-11-16T14:12:53.908Z,5.60
2022-11-16T14:15:39.853Z,6.40
2022-11-16T14:18:36.975Z,6.63
2022-11-16T14:21:24.546Z,7.70
2022-11-16T14:24:49.686Z,8.02
2022-11-16T14:27:57.340Z,10.35
2022-11-16T14:31:10.346Z,10.30
2022-11-16T14:33:58.442Z,10.88
2022-11-16T14:36:46.815Z,10.88
2022-11-16T14:39:32.261Z,10.75
2022-11-16T14:42:38.044Z,12.73
2022-11-16T14:45:37.149Z,13.02
2022-11-16T14:48:28.048Z,12.85
2022-11-16T14:51:20.031Z,10.90
2022-11-16T14:54:16.530Z,9.93
2022-11-16T14:57:05.312Z,8.75
2022-11-16T15:00:19.445Z,8.00
2022-11-16T15:03:06.574Z,6.18
2022-11-16T15:05:52.199Z,5.57
2022-11-16T15:08:45.325Z,5.85
2022-11-16T15:12:00.888Z,5.47
2022-11-16T15:14:56.922Z,5.32
2022-11-16T15:17:46.551Z,5.32
2022-11-16T15:20:34.478Z,5.55
2022-11-16T15:23:20.609Z,5.78
2022-11-16T15:26:06.413Z,6.32
2022-11-16T15:28:52.340Z,6.82
2022-11-16T15:31:41.644Z,7.88
2022-11-16T15:34:27.496Z,9.38
2022-11-16T15:37:15.197Z,8.73
2022-11-16T15:40:03.256Z,8.63
2022-11-16T15:42:49.153Z,8.90
2022-11-16T15:45:36.488Z,8.05
2022-11-16T15:48:24.493Z,7.00
2022-11-16T15:51:23.094Z,6.60
2022-11-16T15:54:54.579Z,5.70
2022-11-16T15:57:45.504Z,3.72
2022-11-16T16:00:35.170Z,4.35
2022-11-16T16:03:22.586Z,2.88
2022-11-16T16:06:15.357Z,4.07
2022-11-16T16:09:05.844Z,3.63
2022-11-16T16:12:10.971Z,3.83
2022-11-16T16:15:22.388Z,5.00
2022-11-16T16:18:39.312Z,7.93
2022-11-16T16:21:26.468Z,5.03
2022-11-16T16:24:34.632Z,7.25
2022-11-16T16:27:25.842Z,7.70
2022-11-16T16:30:14.662Z,7.20
2022-11-16T16:33:01.050Z,7.95
2022-11-16T16:35:49.742Z,7.65
2022-11-16T16:38:35.407Z,7.72
2022-11-16T16:41:24.313Z,7.43
2022-11-16T16:44:15.228Z,6.75
2022-11-16T16:47:00.893Z,7.18
2022-11-16T16:49:47.164Z,6.85
2022-11-16T16:52:33.162Z,6.00
2022-11-16T16:55:18.810Z,5.63
2022-11-16T16:58:04.823Z,6.07
2022-11-16T17:00:50.729Z,7.57
2022-11-16T17:03:36.910Z,8.32
2022-11-16T17:06:23.460Z,8.18
2022-11-16T17:09:08.747Z,7.55
2022-11-16T17:11:54.073Z,6.85
2022-11-16T17:14:39.758Z,7.03
2022-11-16T17:17:25.983Z,7.82
2022-11-16T17:20:11.894Z,6.63
2022-11-16T17:22:58.020Z,6.50
2022-11-16T17:25:44.341Z,7.10
2022-11-16T17:28:30.061Z,6.95
2022-11-16T17:31:15.646Z,8.20
2022-11-16T17:34:01.444Z,8.38
2022-11-16T17:36:47.096Z,9.77
2022-11-16T17:39:32.704Z,9.13
2022-11-16T17:42:18.588Z,9.52
2022-11-16T17:45:04.838Z,9.23
2022-11-16T17:47:50.256Z,9.95
2022-11-16T17:50:35.828Z,10.52
2022-11-16T17:53:21.553Z,10.02
2022-11-16T17:56:07.916Z,9.98
2022-11-16T17:58:55.104Z,9.77
2022-11-16T18:01:40.793Z,10.10
2022-11-16T18:04:26.582Z,11.27
2022-11-16T18:07:12.249Z,11.50
2022-11-16T18:09:57.848Z,12.10
2022-11-16T18:12:43.619Z,11.32
2022-11-16T18:15:29.346Z,12.35
2022-11-16T18:18:16.709Z,12.90
2022-11-16T18:21:02.576Z,13.57
2022-11-16T18:23:48.207Z,13.10
2022-11-16T18:26:33.794Z,13.18
2022-11-16T18:29:19.417Z,13.20
2022-11-16T18:32:05.125Z,13.38
2022-11-16T18:34:51.250Z,13.73
2022-11-16T18:37:36.797Z,13.38
2022-11-16T18:40:22.531Z,13.35
2022-11-16T18:43:14.589Z,12.40
2022-11-16T18:46:00.900Z,12.43
2022-11-16T18:48:46.891Z,12.80
2022-11-16T18:51:33.206Z,13.05
2022-11-16T18:54:18.788Z,12.10
2022-11-16T18:57:04.611Z,13.20
2022-11-16T18:59:50.417Z,13.65
2022-11-16T19:02:36.249Z,14.23
2022-11-16T19:05:21.989Z,13.20
2022-11-16T19:08:08.764Z,13.38
2022-11-16T19:10:55.193Z,13.13
2022-11-16T19:13:42.104Z,14.05
2022-11-16T19:16:27.660Z,14.02
2022-11-16T19:19:13.233Z,13.75
2022-11-16T19:21:58.712Z,14.02
2022-11-16T19:24:44.806Z,12.32
2022-11-16T19:27:32.519Z,13.55
2022-11-16T19:30:18.618Z,13.60
2022-11-16T19:33:04.579Z,14.63
2022-11-16T19:35:50.337Z,14.88
2022-11-16T19:38:36.472Z,14.63
2022-11-16T19:41:23.063Z,15.23
2022-11-16T19:44:08.596Z,14.88
2022-11-16T19:46:56.799Z,14.48
2022-11-16T19:49:42.473Z,15.75
2022-11-16T19:52:28.055Z,16.17
2022-11-16T19:55:14.263Z,15.60
2022-11-16T19:58:00.166Z,14.80
2022-11-16T20:00:45.888Z,15.48
2022-11-16T20:03:31.873Z,15.40
2022-11-16T20:06:38.925Z,15.98
2022-11-16T20:09:24.617Z,14.07
2022-11-16T20:12:10.248Z,12.40
2022-11-16T20:14:55.883Z,12.00
2022-11-16T20:17:41.529Z,12.55
2022-11-16T20:20:27.195Z,11.82
2022-11-16T20:23:15.706Z,12.45
2022-11-16T20:26:05.988Z,11.45
2022-11-16T20:28:52.576Z,13.80
2022-11-16T20:31:42.361Z,15.85
2022-11-16T20:34:28.436Z,18.35
2022-11-16T20:37:13.856Z,17.10
2022-11-16T20:39:59.426Z,15.15
2022-11-16T20:42:46.660Z,13.15
2022-11-16T20:45:34.431Z,12.13
2022-11-16T20:48:20.256Z,12.07
2022-11-16T20:51:07.623Z,13.15
2022-11-16T20:53:53.790Z,12.50
2022-11-16T20:56:39.645Z,12.27
2022-11-16T20:59:25.397Z,11.98
2022-11-16T21:02:11.628Z,11.15
2022-11-16T21:05:00.283Z,11.15
2022-11-16T21:07:46.256Z,11.93
2022-11-16T21:10:35.468Z,12.77
2022-11-16T21:13:40.114Z,12.65
2022-11-16T21:16:25.663Z,11.57
2022-11-16T21:19:11.838Z,11.98
2022-11-16T21:21:57.483Z,12.68
2022-11-16T21:24:43.290Z,11.93
2022-11-16T21:27:28.953Z,12.10
2022-11-16T21:30:14.849Z,11.65
2022-11-16T21:33:00.321Z,12.07
2022-11-16T21:35:46.076Z,12.38
2022-11-16T21:38:32.047Z,13.55
2022-11-16T21:41:19.947Z,13.55
2022-11-16T21:44:05.486Z,13.00
2022-11-16T21:46:51.144Z,12.27
2022-11-16T21:49:54.215Z,12.27
2022-11-16T21:52:42.849Z,12.25
2022-11-16T21:55:28.591Z,12.77
2022-11-16T21:58:14.262Z,12.13
2022-11-16T22:01:02.193Z,12.00
2022-11-16T22:04:08.509Z,11.88
2022-11-16T22:07:12.821Z,13.30
2022-11-16T22:09:58.584Z,12.45
2022-11-16T22:12:44.150Z,13.85
2022-11-16T22:15:30.398Z,16.45
2022-11-16T22:18:16.000Z,17.77
2022-11-16T22:21:02.877Z,15.65
2022-11-16T22:23:48.789Z,16.13
2022-11-16T22:26:34.275Z,14.65
2022-11-16T22:29:19.937Z,14.50
2022-11-16T22:32:05.695Z,13.20
2022-11-16T22:34:51.443Z,13.20
2022-11-16T22:37:37.099Z,13.50
2022-11-16T22:40:22.541Z,13.50
2022-11-16T22:43:08.233Z,13.07
2022-11-16T22:45:58.992Z,12.70
2022-11-16T22:48:45.047Z,13.00
2022-11-16T22:51:31.109Z,11.65
2022-11-16T22:54:16.994Z,12.23
2022-11-16T22:57:03.280Z,12.35
2022-11-16T22:59:49.116Z,13.13
2022-11-16T23:02:34.643Z,12.35
2022-11-16T23:05:20.373Z,14.10
2022-11-16T23:08:06.109Z,12.75
2022-11-16T23:11:20.281Z,12.05
2022-11-16T23:14:28.010Z,12.15
2022-11-16T23:17:13.624Z,11.85
2022-11-16T23:20:18.053Z,12.02
2022-11-16T23:23:22.002Z,12.82
2022-11-16T23:26:41.238Z,12.55
2022-11-16T23:29:26.852Z,13.30
2022-11-16T23:32:12.368Z,12.25
2022-11-16T23:34:58.173Z,12.20
2022-11-16T23:37:57.928Z,12.02
2022-11-16T23:40:43.473Z,12.80
2022-11-16T23:43:47.548Z,12.52
2022-11-16T23:46:33.993Z,11.65
2022-11-16T23:49:19.574Z,11.30
2022-11-16T23:52:05.444Z,12.32
2022-11-16T23:54:50.970Z,12.93
2022-11-16T23:57:36.689Z,12.48
